Time;durP1;ratioP1;P1;durP2;ratioP2;P2;SDS_P1;SDS_P2;PMS_P1;PMS_P2;Temp;Humidity;BMP_temperature;BMP_pressure;BME280_temperature;BME280_humidity;BME280_pressure;Samples;Min_cycle;Max_cycle;Signal;HPM_P1;HPM_P2
2023/08/04 00:00:09;;;;;;;4.82;1.90;;;;;;;22.49;54.87;100956.09;5004484;28;20045;-80
2023/08/04 00:02:36;;;;;;;4.72;1.85;;;;;;;22.49;54.89;100964.06;5004053;28;20128;-77
2023/08/04 00:05:01;;;;;;;6.30;2.17;;;;;;;22.48;55.03;100957.09;5002859;28;20026;-74
2023/08/04 00:07:27;;;;;;;4.22;1.83;;;;;;;22.49;54.49;100964.06;5003526;28;20041;-80
2023/08/04 00:09:52;;;;;;;6.25;1.90;;;;;;;22.46;54.16;100962.53;5002716;28;20045;-75
2023/08/04 00:12:18;;;;;;;4.83;1.70;;;;;;;22.48;54.63;100965.06;5003299;28;20033;-79
2023/08/04 00:14:46;;;;;;;5.20;2.03;;;;;;;22.46;55.15;100974.03;5003554;28;20286;-74
2023/08/04 00:17:12;;;;;;;4.47;2.00;;;;;;;22.46;54.51;100974.03;5002927;28;20033;-76
2023/08/04 00:19:41;;;;;;;6.70;2.30;;;;;;;22.45;54.51;100977.66;5003568;28;20034;-77
2023/08/04 00:22:07;;;;;;;8.07;1.92;;;;;;;22.45;54.37;100982.13;5003414;28;20437;-74
2023/08/04 00:24:32;;;;;;;6.90;2.28;;;;;;;22.45;54.64;100979.47;5001617;28;20022;-75
2023/08/04 00:27:00;;;;;;;6.00;2.10;;;;;;;22.43;54.70;100974.31;5003498;28;20482;-75
2023/08/04 00:29:25;;;;;;;4.95;1.88;;;;;;;22.43;54.26;100969.00;5002205;28;20037;-74
2023/08/04 00:31:50;;;;;;;4.90;2.30;;;;;;;22.43;54.27;100974.31;5002475;28;20034;-79
2023/08/04 00:34:15;;;;;;;4.97;2.20;;;;;;;22.42;54.33;100977.94;5003503;28;20302;-74
2023/08/04 00:36:41;;;;;;;5.95;2.00;;;;;;;22.43;54.50;100987.59;5002678;28;20041;-81
2023/08/04 00:39:06;;;;;;;5.32;2.35;;;;;;;22.43;54.11;100992.06;5002762;28;20040;-74
2023/08/04 00:41:31;;;;;;;6.40;2.22;;;;;;;22.41;54.26;100986.91;5001599;28;20041;-79
2023/08/04 00:43:56;;;;;;;7.47;2.20;;;;;;;22.41;54.59;100989.56;5003121;28;20040;-74
2023/08/04 00:46:23;;;;;;;5.18;2.30;;;;;;;22.41;54.47;100997.53;5002403;28;20260;-80
2023/08/04 00:48:48;;;;;;;6.32;2.35;;;;;;;22.39;54.41;100994.19;5001173;28;20556;-79
2023/08/04 00:51:14;;;;;;;5.50;2.30;;;;;;;22.39;54.16;100996.84;5002532;28;20034;-74
2023/08/04 00:53:40;;;;;;;6.32;2.60;;;;;;;22.39;54.56;100993.34;5002295;28;20030;-75
2023/08/04 00:56:05;;;;;;;4.07;1.90;;;;;;;22.39;54.36;100990.69;5002683;28;20555;-75
2023/08/04 00:58:33;;;;;;;6.07;2.15;;;;;;;22.38;54.14;101000.50;5002456;28;20141;-75
2023/08/04 01:01:00;;;;;;;4.43;2.03;;;;;;;22.37;54.00;100996.16;5000470;28;20133;-74
2023/08/04 01:03:26;;;;;;;6.95;2.30;;;;;;;22.36;54.09;100999.78;5002563;28;20108;-77
2023/08/04 01:06:10;;;;;;;6.93;2.03;;;;;;;22.36;54.22;101009.59;5002450;28;20498;-75
2023/08/04 01:08:35;;;;;;;4.93;2.30;;;;;;;22.37;54.23;100998.81;5001917;28;20056;-74
2023/08/04 01:11:28;;;;;;;5.18;1.98;;;;;;;22.36;53.94;101006.94;5002247;28;20584;-75
2023/08/04 01:13:55;;;;;;;7.88;2.53;;;;;;;22.38;53.76;101004.94;5001313;28;20037;-78
2023/08/04 01:16:20;;;;;;;5.32;2.20;;;;;;;22.36;54.21;100998.97;5002394;28;20477;-76
2023/08/04 01:18:46;;;;;;;5.05;1.90;;;;;;;22.36;53.65;101009.59;5002286;28;20116;-75
2023/08/04 01:21:11;;;;;;;4.50;2.00;;;;;;;22.35;53.92;101010.56;5001681;28;20490;-75
2023/08/04 01:23:36;;;;;;;6.57;2.30;;;;;;;22.35;54.09;101015.88;5002076;28;20036;-78
2023/08/04 01:26:03;;;;;;;6.15;2.42;;;;;;;22.30;53.74;101000.38;5002295;28;20038;-74
2023/08/04 01:28:30;;;;;;;5.43;2.28;;;;;;;22.35;53.83;101015.88;5001732;28;20064;-75
2023/08/04 01:30:57;;;;;;;5.47;2.35;;;;;;;22.33;53.88;101009.88;5002149;28;20117;-74
2023/08/04 01:33:22;;;;;;;4.93;1.92;;;;;;;22.33;53.84;101017.84;5002142;28;20029;-74
2023/08/04 01:35:50;;;;;;;4.32;1.90;;;;;;;22.32;54.10;101019.66;5001614;28;20044;-74
2023/08/04 01:38:15;;;;;;;4.57;2.10;;;;;;;22.32;53.97;101018.81;5002168;28;20383;-79
2023/08/04 01:40:40;;;;;;;5.43;1.90;;;;;;;22.32;54.01;101024.13;5001835;28;20034;-77
2023/08/04 01:43:06;;;;;;;4.47;2.00;;;;;;;22.32;53.97;101032.94;5001225;28;20045;-76
2023/08/04 01:45:31;;;;;;;6.40;2.40;;;;;;;22.31;53.84;101028.59;5002199;28;20029;-78
2023/08/04 01:47:56;;;;;;;8.77;2.33;;;;;;;22.32;53.90;101029.44;5001765;28;20036;-76
2023/08/04 01:50:22;;;;;;;4.97;2.40;;;;;;;22.31;54.08;101027.78;5001295;28;20041;-77
2023/08/04 01:52:47;;;;;;;5.75;2.33;;;;;;;22.31;53.96;101028.59;5001436;28;20478;-74
2023/08/04 01:55:13;;;;;;;5.43;2.03;;;;;;;22.31;53.49;101033.09;5001715;28;20138;-77
2023/08/04 01:57:38;;;;;;;4.78;2.35;;;;;;;22.28;53.58;101023.56;5000817;28;20514;-74
2023/08/04 02:00:05;;;;;;;7.15;2.40;;;;;;;22.29;53.56;101030.56;5001134;28;20068;-80
2023/08/04 02:02:30;;;;;;;4.90;1.95;;;;;;;22.28;53.60;101029.69;5001209;28;20058;-75
2023/08/04 02:04:55;;;;;;;5.38;2.10;;;;;;;22.28;53.67;101036.84;5001322;28;20447;-78
2023/08/04 02:07:21;;;;;;;5.18;1.95;;;;;;;22.27;53.67;101036.00;5001902;28;20045;-74
2023/08/04 02:09:46;;;;;;;6.13;1.95;;;;;;;22.28;53.82;101035.00;5000632;28;20057;-78
2023/08/04 02:12:11;;;;;;;5.68;2.45;;;;;;;22.27;54.04;101029.84;5001940;28;20083;-74
2023/08/04 02:14:36;;;;;;;6.20;2.40;;;;;;;22.26;53.85;101036.97;5000953;28;20038;-78
2023/08/04 02:17:02;;;;;;;5.60;2.10;;;;;;;22.27;53.64;101041.31;5000278;28;20068;-74
2023/08/04 02:19:32;;;;;;;5.80;2.10;;;;;;;22.24;53.77;101038.13;5001303;28;20115;-76
2023/08/04 02:21:57;;;;;;;4.78;2.13;;;;;;;22.26;53.44;101044.13;5001115;28;20053;-77
2023/08/04 02:24:22;;;;;;;6.00;2.50;;;;;;;22.25;53.99;101040.59;5000989;28;20061;-74
2023/08/04 02:26:47;;;;;;;4.38;2.00;;;;;;;22.25;53.59;101040.59;5000689;28;20819;-76
2023/08/04 02:29:13;;;;;;;5.88;2.00;;;;;;;22.25;53.46;101048.56;5001471;28;20048;-74
2023/08/04 02:31:39;;;;;;;7.65;2.38;;;;;;;22.25;53.59;101047.75;4999979;28;20126;-74
2023/08/04 02:34:04;;;;;;;6.18;2.30;;;;;;;22.26;53.74;101052.09;5000545;28;20521;-79
2023/08/04 02:36:30;;;;;;;4.60;1.98;;;;;;;22.24;53.49;101044.25;5001993;28;20038;-74
2023/08/04 02:38:55;;;;;;;5.82;2.38;;;;;;;22.24;53.32;101044.25;5001510;28;20379;-75
2023/08/04 02:41:21;;;;;;;7.18;2.55;;;;;;;22.22;53.54;101043.59;5001621;28;20034;-77
2023/08/04 02:43:46;;;;;;;4.82;2.25;;;;;;;22.21;53.70;101043.72;5001612;28;20057;-79
2023/08/04 02:46:12;;;;;;;5.35;2.15;;;;;;;22.23;53.79;101047.88;5001150;28;20108;-75
2023/08/04 02:48:37;;;;;;;7.10;2.47;;;;;;;22.23;53.27;101057.69;5001504;28;20164;-78
2023/08/04 02:51:08;;;;;;;5.68;2.28;;;;;;;22.21;53.75;101051.69;5000645;28;20064;-75
2023/08/04 02:53:35;;;;;;;5.18;2.00;;;;;;;22.22;53.41;101051.53;4998633;28;20436;-75
2023/08/04 02:56:08;;;;;;;5.63;2.05;;;;;;;22.20;53.40;101045.53;5000475;28;20040;-74
2023/08/04 02:58:33;;;;;;;6.15;2.35;;;;;;;22.22;53.43;101048.88;4999202;28;20044;-77
2023/08/04 03:00:59;;;;;;;5.80;2.20;;;;;;;22.22;53.24;101048.88;5000387;28;20034;-78
2023/08/04 03:03:24;;;;;;;4.60;2.08;;;;;;;22.22;53.41;101045.38;5001046;28;20053;-74
2023/08/04 03:05:49;;;;;;;5.10;2.15;;;;;;;22.23;53.33;101049.72;5000415;28;20095;-74
2023/08/04 03:08:15;;;;;;;4.55;1.98;;;;;;;22.21;53.24;101057.00;5000462;28;20037;-74
2023/08/04 03:10:42;;;;;;;4.03;1.90;;;;;;;22.21;53.31;101060.47;5001628;28;20042;-74
2023/08/04 03:13:09;;;;;;;5.70;2.50;;;;;;;22.20;53.50;101055.31;5004856;28;20100;-75
2023/08/04 03:15:35;;;;;;;7.40;2.55;;;;;;;22.20;53.44;101064.09;5003957;28;20026;-74
2023/08/04 03:18:00;;;;;;;4.55;2.00;;;;;;;22.20;53.51;101066.75;5004017;28;20033;-74
2023/08/04 03:20:25;;;;;;;5.10;2.10;;;;;;;22.19;53.22;101058.94;5003994;28;20029;-75
2023/08/04 03:22:51;;;;;;;4.07;2.13;;;;;;;22.19;53.47;101057.16;5004089;28;20030;-74
2023/08/04 03:25:16;;;;;;;5.55;2.05;;;;;;;22.19;53.08;101066.91;5004373;28;20040;-75
2023/08/04 03:27:41;;;;;;;5.55;2.20;;;;;;;22.19;53.29;101070.41;5003492;28;20029;-75
2023/08/04 03:30:07;;;;;;;3.75;2.03;;;;;;;22.18;53.46;101068.72;5004782;28;20037;-74
2023/08/04 03:32:33;;;;;;;4.65;2.08;;;;;;;22.18;53.50;101071.38;5004225;28;20450;-76
2023/08/04 03:34:58;;;;;;;5.20;2.10;;;;;;;22.18;53.27;101070.56;5003830;28;20052;-74
2023/08/04 03:37:23;;;;;;;5.22;2.00;;;;;;;22.18;53.23;101076.69;5004353;28;20374;-76
2023/08/04 03:39:48;;;;;;;4.20;2.08;;;;;;;22.18;53.30;101075.88;5004321;28;20216;-74
2023/08/04 03:42:14;;;;;;;4.72;2.05;;;;;;;22.19;53.41;101082.84;5003396;28;20788;-75
2023/08/04 03:44:39;;;;;;;5.53;1.90;;;;;;;22.17;53.02;101075.00;5004225;28;20108;-73
2023/08/04 03:47:05;;;;;;;4.68;2.10;;;;;;;22.17;53.22;101068.88;5004251;28;20030;-75
2023/08/04 03:49:30;;;;;;;4.68;2.13;;;;;;;22.17;53.28;101068.88;5003809;28;20034;-79
2023/08/04 03:51:55;;;;;;;5.18;2.10;;;;;;;22.17;53.35;101079.50;5001922;28;20828;-74
2023/08/04 03:54:21;;;;;;;4.88;2.10;;;;;;;22.16;53.39;101080.47;5004300;28;20033;-78
2023/08/04 03:56:46;;;;;;;4.82;2.20;;;;;;;22.16;53.08;101081.31;5002646;28;20026;-75
2023/08/04 03:59:12;;;;;;;4.57;2.03;;;;;;;22.17;53.25;101090.13;5004096;28;20037;-75
2023/08/04 04:01:38;;;;;;;6.53;2.28;;;;;;;22.14;53.47;101083.28;5003709;28;20398;-76
2023/08/04 04:04:04;;;;;;;5.60;2.55;;;;;;;22.16;53.14;101081.31;5003059;28;20041;-74
2023/08/04 04:06:29;;;;;;;4.80;1.85;;;;;;;22.15;53.18;101082.28;5003849;28;20392;-76
2023/08/04 04:08:54;;;;;;;5.35;2.15;;;;;;;22.13;53.11;101080.75;5003178;28;20033;-80
2023/08/04 04:11:20;;;;;;;4.80;2.20;;;;;;;22.15;53.33;101081.47;5003593;28;20577;-74
2023/08/04 04:13:45;;;;;;;4.63;2.10;;;;;;;22.15;53.45;101084.13;5003537;28;20030;-78
2023/08/04 04:16:10;;;;;;;5.00;2.30;;;;;;;22.15;52.91;101086.78;5001762;28;20026;-74
2023/08/04 04:18:36;;;;;;;5.60;2.00;;;;;;;22.13;53.00;101086.06;5003559;28;20140;-77
2023/08/04 04:21:01;;;;;;;4.47;2.05;;;;;;;22.13;52.91;101088.72;5003407;28;20030;-75
2023/08/04 04:23:27;;;;;;;6.68;2.17;;;;;;;22.13;52.96;101094.88;5002637;28;20124;-74
2023/08/04 04:25:53;;;;;;;6.15;2.45;;;;;;;22.12;52.87;101095.84;5003445;28;20200;-71
2023/08/04 04:28:19;;;;;;;4.00;2.00;;;;;;;22.13;53.31;101094.88;5003644;28;20772;-77
2023/08/04 04:30:44;;;;;;;7.40;2.20;;;;;;;22.10;53.18;101096.00;5002551;28;20030;-79
2023/08/04 04:33:10;;;;;;;5.38;1.85;;;;;;;22.13;53.19;101099.34;5002949;28;20030;-74
2023/08/04 04:35:35;;;;;;;5.03;1.98;;;;;;;22.12;52.85;101103.00;5002500;28;20113;-76
2023/08/04 04:38:00;;;;;;;4.68;2.17;;;;;;;22.12;52.96;101106.47;5017278;28;20038;-74
2023/08/04 04:40:25;;;;;;;6.43;2.17;;;;;;;22.11;53.29;101096.81;5001688;28;20064;-75
2023/08/04 04:42:51;;;;;;;4.65;2.00;;;;;;;22.12;52.87;101103.00;5001471;28;20259;-74
2023/08/04 04:45:16;;;;;;;4.75;2.00;;;;;;;22.10;52.89;101101.31;5001550;28;20037;-74
2023/08/04 04:47:41;;;;;;;5.38;2.10;;;;;;;22.10;53.25;101109.28;5002581;28;20387;-74
2023/08/04 04:50:07;;;;;;;5.05;1.92;;;;;;;22.10;53.07;101105.78;5002884;28;20051;-74
2023/08/04 04:52:35;;;;;;;4.57;1.80;;;;;;;22.08;53.08;101119.19;5001294;28;20494;-76
2023/08/04 04:55:01;;;;;;;4.47;2.10;;;;;;;22.08;53.13;101113.91;5002184;28;20037;-75
2023/08/04 04:57:27;;;;;;;4.93;2.03;;;;;;;22.08;52.95;101111.25;5002364;28;20080;-74
2023/08/04 04:59:53;;;;;;;4.82;2.03;;;;;;;22.08;53.03;101119.19;5001339;28;20026;-78
2023/08/04 05:02:18;;;;;;;4.90;2.05;;;;;;;22.08;53.15;101124.50;5002997;28;20061;-74
2023/08/04 05:04:44;;;;;;;4.18;1.95;;;;;;;22.06;52.87;101122.97;5002272;28;20030;-77
2023/08/04 05:07:09;;;;;;;3.65;1.70;;;;;;;22.07;52.83;101128.13;5002141;28;20660;-75
2023/08/04 05:09:35;;;;;;;4.75;2.25;;;;;;;22.08;52.97;101131.66;5002350;28;20069;-79
2023/08/04 05:12:00;;;;;;;4.28;2.00;;;;;;;22.07;52.70;101132.63;5002509;28;20030;-74
2023/08/04 05:14:25;;;;;;;5.80;2.20;;;;;;;22.06;53.21;101137.09;5001550;28;20061;-77
2023/08/04 05:16:51;;;;;;;5.13;2.40;;;;;;;22.07;53.04;101144.06;5002307;28;20072;-79
2023/08/04 05:19:16;;;;;;;3.65;1.75;;;;;;;22.07;53.16;101130.78;5000749;28;20037;-75
2023/08/04 05:21:41;;;;;;;5.85;2.10;;;;;;;22.08;52.90;101144.91;5001515;28;20030;-78
2023/08/04 05:24:07;;;;;;;4.22;2.00;;;;;;;22.08;53.36;101144.91;5002251;28;20029;-75
2023/08/04 05:26:32;;;;;;;4.55;2.20;;;;;;;22.07;53.28;101152.03;5001682;28;20037;-79
2023/08/04 05:28:57;;;;;;;4.90;2.20;;;;;;;22.07;53.30;101149.38;5002245;28;20048;-74
2023/08/04 05:31:22;;;;;;;4.60;2.10;;;;;;;22.07;52.99;101157.31;5002350;28;21510;-80
2023/08/04 05:33:48;;;;;;;5.72;2.05;;;;;;;22.06;53.62;101158.34;5000929;28;20267;-75
2023/08/04 05:36:13;;;;;;;4.75;1.80;;;;;;;22.08;53.41;101160.84;5002019;28;20154;-77
2023/08/04 05:38:39;;;;;;;5.00;2.20;;;;;;;22.07;53.36;101148.53;5000352;28;20044;-73
2023/08/04 05:41:05;;;;;;;5.05;2.15;;;;;;;22.06;53.28;101150.38;5001349;28;20084;-75
2023/08/04 05:43:30;;;;;;;7.80;2.50;;;;;;;22.06;53.55;101157.47;5000998;28;20038;-74
2023/08/04 05:46:02;;;;;;;5.95;2.10;;;;;;;22.06;53.36;101154.81;5001651;28;20072;-74
2023/08/04 05:48:32;;;;;;;5.07;2.00;;;;;;;22.05;53.65;101161.94;5000702;28;20121;-74
2023/08/04 05:50:57;;;;;;;5.60;2.42;;;;;;;22.06;53.57;101160.97;5016218;28;20540;-75
2023/08/04 05:53:23;;;;;;;4.40;2.10;;;;;;;22.07;53.68;101167.13;5002272;28;20114;-76
2023/08/04 05:55:48;;;;;;;5.07;1.90;;;;;;;22.06;53.42;101163.63;5001225;28;20064;-74
2023/08/04 05:58:13;;;;;;;4.80;2.00;;;;;;;22.06;53.97;101166.28;5002119;28;20053;-73
2023/08/04 06:00:39;;;;;;;4.53;2.25;;;;;;;22.07;53.96;101169.78;5000553;28;20056;-73
2023/08/04 06:03:04;;;;;;;5.50;1.90;;;;;;;22.06;53.52;101174.25;5001455;28;20060;-74
2023/08/04 06:05:30;;;;;;;4.43;2.03;;;;;;;22.07;54.07;101177.72;5001584;28;20030;-79
2023/08/04 06:07:55;;;;;;;5.57;2.20;;;;;;;22.06;53.63;101176.91;5001664;28;20087;-78
2023/08/04 06:10:21;;;;;;;4.45;2.05;;;;;;;22.07;53.60;101180.38;5001415;28;20399;-75
2023/08/04 06:12:50;;;;;;;3.35;1.63;;;;;;;22.04;54.12;101170.06;5001940;28;20038;-73
2023/08/04 06:15:15;;;;;;;4.78;2.20;;;;;;;22.06;53.91;101178.69;5002110;28;20083;-75
2023/08/04 06:17:41;;;;;;;4.10;1.98;;;;;;;22.06;53.82;101182.22;5000471;28;20037;-74
2023/08/04 06:20:07;;;;;;;4.85;1.90;;;;;;;22.07;54.16;101191.00;5001095;28;20026;-77
2023/08/04 06:22:34;;;;;;;5.55;2.30;;;;;;;22.07;53.96;101191.00;5000618;28;20742;-77
2023/08/04 06:24:59;;;;;;;6.57;2.08;;;;;;;22.05;54.64;101180.53;5001411;28;20065;-76
2023/08/04 06:27:25;;;;;;;5.57;2.08;;;;;;;22.07;54.11;101191.00;5001215;28;20034;-75
2023/08/04 06:29:50;;;;;;;4.55;2.50;;;;;;;22.09;54.32;101192.53;5000087;28;20030;-76
2023/08/04 06:32:16;;;;;;;4.53;1.73;;;;;;;22.08;54.12;101196.16;5001130;28;20133;-76
2023/08/04 06:34:41;;;;;;;4.65;2.20;;;;;;;22.07;54.28;101210.41;5001304;28;20113;-75
2023/08/04 06:37:06;;;;;;;4.97;1.90;;;;;;;22.06;54.42;101211.41;5000257;28;20037;-74
2023/08/04 06:39:32;;;;;;;6.88;1.80;;;;;;;22.07;55.02;101207.75;5001391;28;20040;-76
2023/08/04 06:41:57;;;;;;;4.07;2.10;;;;;;;22.09;55.00;101213.75;5000789;28;20057;-75
2023/08/04 06:44:22;;;;;;;6.03;1.63;;;;;;;22.10;55.12;101207.47;5000377;28;20172;-73
2023/08/04 06:46:48;;;;;;;4.55;1.90;;;;;;;22.10;54.81;101211.97;5000202;28;21237;-75
2023/08/04 06:49:13;;;;;;;5.03;1.83;;;;;;;22.10;55.27;101209.31;5000908;28;20033;-74
2023/08/04 06:51:38;;;;;;;4.53;1.90;;;;;;;22.10;54.93;101215.44;5000149;28;20046;-74
2023/08/04 06:54:03;;;;;;;4.60;1.70;;;;;;;22.10;55.40;101210.13;5000031;28;20417;-75
2023/08/04 06:56:29;;;;;;;5.85;2.03;;;;;;;22.10;55.07;101218.09;5015499;28;20431;-76
2023/08/04 06:58:54;;;;;;;4.32;1.73;;;;;;;22.10;55.36;101223.41;4999774;28;20113;-77
2023/08/04 07:01:19;;;;;;;4.07;1.80;;;;;;;22.10;55.33;101225.22;5015294;28;20030;-74
2023/08/04 07:03:45;;;;;;;4.40;1.67;;;;;;;22.11;55.68;101224.22;4999906;28;20054;-79
2023/08/04 07:06:11;;;;;;;5.65;1.85;;;;;;;22.11;55.36;101224.22;4999637;28;20442;-75
2023/08/04 07:08:36;;;;;;;4.50;1.80;;;;;;;22.10;55.39;101228.72;5000699;28;20030;-75
2023/08/04 07:11:02;;;;;;;6.38;1.88;;;;;;;22.12;55.61;101230.41;5000520;28;20539;-74
2023/08/04 07:13:29;;;;;;;6.07;2.10;;;;;;;22.12;55.46;101233.88;5000095;28;20034;-75
2023/08/04 07:15:59;;;;;;;5.07;1.90;;;;;;;22.11;56.03;101234.84;5000182;28;20093;-74
2023/08/04 07:18:24;;;;;;;3.85;1.90;;;;;;;22.14;55.84;101239.03;5000417;28;20033;-74
2023/08/04 07:20:50;;;;;;;5.38;1.80;;;;;;;22.12;55.55;101249.81;4999426;28;20516;-73
2023/08/04 07:23:15;;;;;;;7.47;2.20;;;;;;;22.14;56.05;101247.00;4995973;28;20030;-75
2023/08/04 07:25:40;;;;;;;8.30;2.10;;;;;;;22.15;56.20;101241.56;4999434;28;20040;-74
2023/08/04 07:28:06;;;;;;;6.20;2.03;;;;;;;22.14;56.68;101242.53;4999162;28;20544;-73
2023/08/04 07:30:32;;;;;;;7.47;2.00;;;;;;;22.14;56.77;101247.84;5000226;28;20034;-78
2023/08/04 07:32:58;;;;;;;5.00;1.88;;;;;;;22.14;56.61;101247.84;4998950;28;20116;-70
2023/08/04 07:35:24;;;;;;;5.78;1.90;;;;;;;22.13;56.95;101243.53;5000290;28;20096;-69
2023/08/04 07:37:49;;;;;;;3.90;1.70;;;;;;;22.14;56.96;101241.69;5000477;28;20775;-69
2023/08/04 07:40:15;;;;;;;5.63;1.70;;;;;;;22.12;57.01;101247.16;4999514;28;20030;-72
2023/08/04 07:42:42;;;;;;;4.80;1.95;;;;;;;22.13;57.00;101247.97;4998885;28;20125;-69
2023/08/04 07:45:08;;;;;;;5.28;1.80;;;;;;;22.15;57.16;101251.34;4999649;28;20052;-71
2023/08/04 07:47:34;;;;;;;4.72;1.88;;;;;;;22.14;57.16;101253.13;4999198;28;20475;-77
2023/08/04 07:49:59;;;;;;;4.97;1.80;;;;;;;22.15;57.07;101254.00;4998905;28;21227;-72
2023/08/04 07:52:24;;;;;;;8.68;3.30;;;;;;;22.17;57.51;101258.16;4999318;28;20126;-76
2023/08/04 07:54:49;;;;;;;8.30;2.80;;;;;;;22.18;58.18;101251.91;4999262;28;20048;-73
2023/08/04 07:57:15;;;;;;;8.33;3.20;;;;;;;22.21;58.48;101253.44;5000763;28;20033;-77
2023/08/04 07:59:40;;;;;;;8.93;3.45;;;;;;;22.22;58.31;101260.41;5002870;28;20286;-71
2023/08/04 08:02:05;;;;;;;6.88;3.00;;;;;;;22.22;58.30;101260.41;5003018;28;20050;-77
2023/08/04 08:04:30;;;;;;;8.52;3.15;;;;;;;22.23;58.81;101267.41;5004790;28;20461;-69
2023/08/04 08:06:56;;;;;;;8.82;2.63;;;;;;;22.22;58.50;101269.22;5003446;28;20060;-75
2023/08/04 08:09:21;;;;;;;6.65;2.80;;;;;;;22.23;58.80;101272.72;5002581;28;20037;-73
2023/08/04 08:11:46;;;;;;;6.97;2.92;;;;;;;22.28;58.73;101267.81;5002652;28;20545;-73
2023/08/04 08:14:12;;;;;;;9.63;2.97;;;;;;;22.28;58.67;101267.81;5003186;28;20029;-69
2023/08/04 08:16:37;;;;;;;6.65;2.65;;;;;;;22.27;58.63;101274.94;5017039;28;20044;-72
2023/08/04 08:19:03;;;;;;;6.90;2.65;;;;;;;22.26;58.64;101267.94;5002472;28;20474;-74
2023/08/04 08:21:30;;;;;;;10.13;2.80;;;;;;;22.27;58.47;101272.28;5001030;28;20475;-74
2023/08/04 08:23:56;;;;;;;8.00;3.05;;;;;;;22.27;58.63;101272.28;5001265;28;20490;-72
2023/08/04 08:26:21;;;;;;;9.55;3.22;;;;;;;22.28;58.84;101271.28;5000542;28;20032;-73
2023/08/04 08:28:46;;;;;;;6.97;2.97;;;;;;;22.26;58.54;101280.38;5001868;28;20076;-74
2023/08/04 08:31:11;;;;;;;7.20;2.58;;;;;;;22.27;58.37;101288.22;5001569;28;21236;-72
2023/08/04 08:33:39;;;;;;;8.68;2.70;;;;;;;22.26;58.52;101275.09;5001979;28;20038;-75
2023/08/04 08:36:06;;;;;;;6.15;2.75;;;;;;;22.28;58.54;101287.22;5002578;28;20037;-70
2023/08/04 08:38:31;;;;;;;6.50;2.15;;;;;;;22.28;58.61;101286.38;5001508;28;20140;-69
2023/08/04 08:40:56;;;;;;;7.15;3.10;;;;;;;22.32;58.43;101292.28;5001898;28;20044;-72
2023/08/04 08:43:22;;;;;;;9.68;2.80;;;;;;;22.27;58.24;101287.34;5001347;28;20127;-69
2023/08/04 08:45:47;;;;;;;6.95;2.45;;;;;;;22.25;58.59;101284.84;5002646;28;20056;-71
2023/08/04 08:48:13;;;;;;;7.25;2.55;;;;;;;22.24;58.36;101293.81;5003375;28;20052;-76
2023/08/04 08:50:41;;;;;;;6.53;2.53;;;;;;;22.26;58.66;101296.31;5000539;28;20033;-71
2023/08/04 08:53:13;;;;;;;6.72;2.50;;;;;;;22.23;58.36;101302.75;5003346;28;20124;-72
2023/08/04 08:55:40;;;;;;;7.60;2.33;;;;;;;22.20;58.52;101308.31;5002758;28;20065;-75
2023/08/04 08:58:06;;;;;;;7.88;2.50;;;;;;;22.18;58.66;101304.16;5001854;28;20973;-74
2023/08/04 09:00:34;;;;;;;6.00;2.45;;;;;;;22.13;58.16;101303.72;5002235;28;20097;-74
2023/08/04 09:03:00;;;;;;;5.50;2.22;;;;;;;22.14;58.81;101300.91;5001031;28;20061;-77
2023/08/04 09:05:25;;;;;;;6.80;2.50;;;;;;;22.15;58.33;101302.59;5001225;28;20091;-70
2023/08/04 09:07:51;;;;;;;5.22;2.05;;;;;;;22.16;58.50;101303.44;5000906;28;20069;-71
2023/08/04 09:10:16;;;;;;;7.03;2.50;;;;;;;22.15;58.26;101305.25;5001323;28;20087;-70
2023/08/04 09:12:46;;;;;;;5.45;2.13;;;;;;;22.15;57.95;101312.41;5001172;28;20080;-70
2023/08/04 09:15:12;;;;;;;6.50;2.10;;;;;;;22.17;57.71;101308.59;5001921;28;20045;-72
2023/08/04 09:17:39;;;;;;;6.15;1.85;;;;;;;22.18;57.72;101310.28;5001100;28;20037;-71
2023/08/04 09:20:10;;;;;;;10.48;2.22;;;;;;;22.20;58.03;101308.31;5000558;28;20041;-74
2023/08/04 09:22:43;;;;;;;6.93;2.38;;;;;;;22.18;58.05;101317.44;5001204;28;20030;-69
2023/08/04 09:25:08;;;;;;;6.63;2.30;;;;;;;22.19;58.05;101332.34;5000392;28;20060;-72
2023/08/04 09:27:39;;;;;;;5.53;1.90;;;;;;;22.19;57.90;101329.69;5000444;28;20457;-72
2023/08/04 09:30:11;;;;;;;8.48;2.42;;;;;;;22.18;58.07;101325.41;5001278;28;20033;-72
2023/08/04 09:32:50;;;;;;;5.75;2.35;;;;;;;22.17;58.34;101332.50;4999929;28;20088;-71
2023/08/04 09:35:15;;;;;;;4.60;2.00;;;;;;;22.19;57.95;101332.34;5001164;28;20033;-72
2023/08/04 09:37:41;;;;;;;5.78;2.15;;;;;;;22.17;58.27;101324.53;5000882;28;20894;-70
2023/08/04 09:40:34;;;;;;;5.85;2.13;;;;;;;22.19;57.97;101324.41;4999493;28;20089;-69
2023/08/04 09:43:00;;;;;;;4.93;1.92;;;;;;;22.21;58.02;101327.78;5002693;28;20510;-70
2023/08/04 09:45:25;;;;;;;4.38;1.98;;;;;;;22.24;58.01;101330.97;5000755;28;20076;-71
2023/08/04 09:47:51;;;;;;;4.67;2.10;;;;;;;22.26;58.31;101329.00;5000114;28;20570;-74
2023/08/04 09:50:18;;;;;;;5.88;2.30;;;;;;;22.28;58.19;101337.66;5001567;28;20267;-71
2023/08/04 09:52:44;;;;;;;4.43;1.85;;;;;;;22.28;57.77;101323.56;5002437;28;20494;-71
2023/08/04 09:55:09;;;;;;;5.38;1.90;;;;;;;22.32;57.94;101322.34;5000733;28;20045;-71
2023/08/04 09:57:35;;;;;;;4.85;1.90;;;;;;;22.34;57.87;101322.19;4999141;28;20502;-73
2023/08/04 10:00:00;;;;;;;6.13;2.03;;;;;;;22.33;57.48;101329.31;5002218;28;20042;-75
2023/08/04 10:02:26;;;;;;;5.35;1.92;;;;;;;22.34;57.73;101325.69;5000371;28;20506;-70
2023/08/04 10:04:51;;;;;;;5.32;2.42;;;;;;;22.32;57.34;101321.47;5000637;28;20025;-72
2023/08/04 10:07:18;;;;;;;5.50;1.88;;;;;;;22.32;57.41;101327.66;5000953;28;20758;-71
2023/08/04 10:09:46;;;;;;;6.43;1.90;;;;;;;22.28;57.89;101327.03;4999802;28;20061;-70
2023/08/04 10:12:13;;;;;;;8.40;1.88;;;;;;;22.32;57.65;101329.44;5000584;28;20030;-72
2023/08/04 10:14:39;;;;;;;5.13;2.03;;;;;;;22.32;57.29;101334.75;4998977;28;20133;-75
2023/08/04 10:17:05;;;;;;;5.78;1.85;;;;;;;22.30;57.35;101337.56;5000618;28;20471;-72
2023/08/04 10:19:33;;;;;;;6.15;1.90;;;;;;;22.27;57.40;101336.00;5000299;28;20045;-71
2023/08/04 10:22:08;;;;;;;3.83;1.90;;;;;;;22.26;57.41;101336.16;4999942;28;20030;-69
2023/08/04 10:24:37;;;;;;;4.80;1.88;;;;;;;22.27;57.86;101338.66;5000888;28;20045;-70
2023/08/04 10:27:45;;;;;;;4.40;1.67;;;;;;;22.24;57.74;101336.28;5001040;28;20022;-72
2023/08/04 10:30:11;;;;;;;4.50;1.48;;;;;;;22.28;57.70;101336.84;4996590;28;20057;-72
2023/08/04 10:32:38;;;;;;;5.43;2.35;;;;;;;22.23;57.81;101325.81;4998780;28;20037;-73
2023/08/04 10:35:06;;;;;;;6.43;2.75;;;;;;;22.25;57.61;101329.97;5000022;28;20092;-74
2023/08/04 10:37:48;;;;;;;9.90;2.10;;;;;;;22.23;57.81;101339.06;4999982;28;20029;-70
2023/08/04 10:40:25;;;;;;;4.13;1.60;;;;;;;22.43;57.21;101337.25;5000152;28;20616;-73
2023/08/04 10:43:04;;;;;;;4.25;1.60;;;;;;;22.53;57.45;101343.41;4997441;28;20042;-75
2023/08/04 10:45:48;;;;;;;4.82;1.70;;;;;;;22.60;56.98;101346.34;5000879;28;20228;-72
2023/08/04 10:48:14;;;;;;;4.85;1.75;;;;;;;22.66;56.83;101345.78;4999602;28;20045;-69
2023/08/04 10:50:40;;;;;;;6.93;1.63;;;;;;;22.65;56.74;101346.75;4999308;28;20034;-71
2023/08/04 10:53:05;;;;;;;5.53;1.75;;;;;;;22.63;56.71;101344.22;5000987;28;20060;-74
2023/08/04 10:55:33;;;;;;;4.10;1.60;;;;;;;22.61;56.83;101345.38;4998149;28;20035;-70
2023/08/04 10:57:58;;;;;;;6.22;1.88;;;;;;;22.54;57.22;101350.41;4998844;28;20034;-72
2023/08/04 11:00:24;;;;;;;10.40;2.13;;;;;;;22.47;57.25;101359.91;5002390;28;20037;-73
2023/08/04 11:02:49;;;;;;;6.65;1.58;;;;;;;22.44;57.65;101360.19;4994636;28;20119;-71
2023/08/04 11:05:14;;;;;;;4.82;1.83;;;;;;;22.42;57.59;101359.50;4998441;28;20477;-72
2023/08/04 11:07:47;;;;;;;5.65;1.73;;;;;;;22.39;57.43;101357.97;5001296;28;20403;-72
2023/08/04 11:10:12;;;;;;;7.07;1.88;;;;;;;22.38;57.50;101364.28;5003170;28;20061;-71
2023/08/04 11:12:38;;;;;;;4.38;1.60;;;;;;;22.39;57.53;101359.78;5000108;28;20989;-73
2023/08/04 11:15:04;;;;;;;4.03;1.58;;;;;;;22.38;57.75;101361.63;4999542;28;20038;-70
2023/08/04 11:17:29;;;;;;;3.47;1.40;;;;;;;22.38;57.71;101366.06;4982476;28;20348;-73
2023/08/04 11:19:54;;;;;;;5.70;1.50;;;;;;;22.35;57.64;101369.84;4999410;28;20037;-71